createdAt,value
2023-01-13T00:01:47.893Z,0.40
2023-01-13T00:06:49.715Z,0.40
2023-01-13T00:11:51.503Z,0.50
2023-01-13T00:16:53.240Z,0.40
2023-01-13T00:21:55.142Z,0.30
2023-01-13T00:26:56.927Z,0.50
2023-01-13T00:31:59.481Z,0.63
2023-01-13T00:37:01.564Z,0.47
2023-01-13T00:42:23.173Z,0.43
2023-01-13T00:47:25.574Z,0.40
2023-01-13T00:52:27.470Z,0.53
2023-01-13T00:57:29.656Z,0.40
2023-01-13T01:02:31.446Z,0.40
2023-01-13T01:07:33.243Z,0.30
2023-01-13T01:12:35.088Z,0.50
2023-01-13T01:17:37.460Z,0.40
2023-01-13T01:22:39.213Z,0.47
2023-01-13T01:27:41.130Z,0.60
2023-01-13T01:32:42.882Z,0.80
2023-01-13T01:37:45.029Z,0.50
2023-01-13T01:43:05.351Z,0.60
2023-01-13T01:48:07.929Z,0.70
2023-01-13T01:53:13.647Z,0.50
2023-01-13T01:58:18.986Z,0.80
2023-01-13T02:03:21.015Z,0.63
2023-01-13T02:08:22.913Z,1.50
2023-01-13T02:13:24.782Z,0.97
2023-01-13T02:18:45.003Z,0.70
2023-01-13T02:24:05.129Z,0.70
2023-01-13T02:29:31.983Z,0.83
2023-01-13T02:34:39.322Z,0.70
2023-01-13T02:39:46.600Z,0.60
2023-01-13T02:44:53.872Z,0.60
2023-01-13T02:50:02.011Z,1.33
2023-01-13T02:55:08.471Z,1.00
2023-01-13T03:00:11.768Z,1.13
2023-01-13T03:05:15.543Z,0.80
2023-01-13T03:10:50.020Z,1.53
2023-01-13T03:16:09.576Z,1.40
2023-01-13T03:21:34.509Z,0.60
2023-01-13T03:26:49.449Z,0.90
2023-01-13T03:32:14.499Z,0.60
2023-01-13T03:37:19.956Z,0.67
2023-01-13T03:42:24.060Z,2.03
2023-01-13T03:47:30.652Z,1.60
2023-01-13T03:52:38.356Z,1.50
2023-01-13T03:57:44.645Z,2.50
2023-01-13T04:02:56.918Z,2.47
2023-01-13T04:08:26.183Z,0.97
2023-01-13T04:13:30.811Z,1.00
2023-01-13T04:18:32.491Z,3.53
2023-01-13T04:23:34.669Z,3.23
2023-01-13T04:28:43.607Z,4.23
2023-01-13T04:33:45.483Z,4.77
2023-01-13T04:38:47.443Z,1.17
2023-01-13T04:43:49.374Z,3.03
2023-01-13T04:48:51.191Z,2.97
2023-01-13T04:53:53.085Z,3.37
2023-01-13T04:58:56.181Z,2.77
2023-01-13T05:03:57.960Z,3.73
2023-01-13T05:08:59.942Z,2.77
2023-01-13T05:14:20.556Z,3.67
2023-01-13T05:19:22.343Z,7.20
2023-01-13T05:24:42.886Z,2.47
2023-01-13T05:29:44.704Z,2.67
2023-01-13T05:34:46.598Z,4.57
2023-01-13T05:40:06.911Z,1.63
2023-01-13T05:45:09.190Z,3.63
2023-01-13T05:50:10.907Z,1.93
2023-01-13T05:55:12.735Z,4.77
2023-01-13T06:00:15.353Z,3.33
2023-01-13T06:05:17.048Z,3.60
2023-01-13T06:10:19.323Z,4.90
2023-01-13T06:15:21.366Z,4.50
2023-01-13T06:20:23.430Z,3.83
2023-01-13T06:25:28.799Z,3.37
2023-01-13T06:30:35.169Z,3.63
2023-01-13T06:35:39.639Z,5.10
2023-01-13T06:40:42.607Z,4.30
2023-01-13T06:45:56.273Z,6.03
2023-01-13T06:50:57.909Z,2.07
2023-01-13T06:55:59.656Z,3.20
2023-01-13T07:01:01.594Z,1.33
2023-01-13T07:06:03.340Z,3.77
2023-01-13T07:11:05.145Z,1.93
2023-01-13T07:16:08.416Z,2.10
2023-01-13T07:21:11.959Z,3.17
2023-01-13T07:26:14.827Z,2.17
2023-01-13T07:31:20.883Z,1.60
2023-01-13T07:36:22.612Z,2.63
2023-01-13T07:41:43.164Z,1.23
2023-01-13T07:46:44.938Z,2.17
2023-01-13T07:51:46.486Z,1.00
2023-01-13T07:56:48.166Z,2.30
2023-01-13T08:01:52.526Z,1.40
2023-01-13T08:06:54.369Z,3.67
2023-01-13T08:12:15.060Z,2.30
2023-01-13T08:17:17.428Z,1.30
2023-01-13T08:22:20.259Z,2.03
2023-01-13T08:27:21.952Z,3.20
2023-01-13T08:32:23.652Z,2.33
2023-01-13T08:37:26.195Z,2.03
2023-01-13T08:42:27.949Z,1.60
2023-01-13T08:47:29.831Z,1.40
2023-01-13T08:52:31.528Z,3.77
2023-01-13T08:57:33.344Z,1.73
2023-01-13T09:02:35.769Z,3.63
2023-01-13T09:07:38.364Z,5.33
2023-01-13T09:12:58.459Z,4.47
2023-01-13T09:18:00.512Z,3.17
2023-01-13T09:23:02.383Z,4.13
2023-01-13T09:28:05.124Z,3.67
2023-01-13T09:33:25.230Z,6.67
2023-01-13T09:38:27.708Z,6.13
2023-01-13T09:43:53.870Z,2.90
2023-01-13T09:48:56.220Z,5.60
2023-01-13T09:54:03.402Z,5.40
2023-01-13T09:59:04.974Z,2.43
2023-01-13T10:04:11.345Z,4.37
2023-01-13T10:09:41.299Z,4.87
2023-01-13T10:14:52.986Z,5.90
2023-01-13T10:20:06.780Z,3.43
2023-01-13T10:25:20.318Z,7.43
2023-01-13T10:30:31.575Z,7.43
2023-01-13T10:35:53.962Z,5.17
2023-01-13T10:40:58.411Z,2.77
2023-01-13T10:46:13.269Z,4.67
2023-01-13T10:51:28.255Z,9.57
2023-01-13T10:56:32.716Z,5.37
2023-01-13T11:01:34.456Z,4.70
2023-01-13T11:06:37.606Z,4.57
2023-01-13T11:11:42.551Z,3.57
2023-01-13T11:16:53.127Z,4.77
2023-01-13T11:21:56.643Z,5.23
2023-01-13T11:27:06.187Z,13.40
2023-01-13T11:32:22.272Z,3.90
2023-01-13T11:37:30.806Z,7.67
2023-01-13T11:42:38.782Z,6.83
2023-01-13T11:47:40.488Z,4.57
2023-01-13T11:52:59.629Z,6.43
2023-01-13T11:58:17.984Z,4.37
2023-01-13T12:03:23.103Z,6.20
2023-01-13T12:08:49.958Z,7.20
2023-01-13T12:14:02.654Z,4.20
2023-01-13T12:19:21.806Z,4.03
2023-01-13T12:24:27.672Z,2.43
2023-01-13T12:29:35.752Z,3.60
2023-01-13T12:34:53.535Z,3.73
2023-01-13T12:40:12.138Z,4.60
2023-01-13T12:45:13.851Z,3.67
2023-01-13T12:50:24.843Z,5.87
2023-01-13T12:55:28.275Z,6.77
2023-01-13T13:00:38.605Z,3.80
2023-01-13T13:05:48.831Z,4.33
2023-01-13T13:11:33.161Z,4.57
2023-01-13T13:16:51.689Z,4.03
2023-01-13T13:22:14.146Z,3.27
2023-01-13T13:27:27.571Z,2.67
2023-01-13T13:32:37.914Z,6.80
2023-01-13T13:38:16.789Z,6.87
2023-01-13T13:43:38.414Z,2.77
2023-01-13T13:48:40.037Z,2.87
2023-01-13T13:53:42.764Z,5.37
2023-01-13T13:58:47.193Z,4.53
2023-01-13T14:04:05.083Z,2.67
2023-01-13T14:09:16.430Z,4.47
2023-01-13T14:14:21.349Z,4.10
2023-01-13T14:19:30.131Z,2.43
2023-01-13T14:24:32.177Z,5.20
2023-01-13T14:29:33.814Z,3.50
2023-01-13T14:34:35.744Z,5.23
2023-01-13T14:39:40.745Z,4.83
2023-01-13T14:44:47.606Z,4.07
2023-01-13T14:50:05.080Z,6.97
2023-01-13T14:55:10.216Z,3.80
2023-01-13T15:00:15.038Z,2.63
2023-01-13T15:05:19.849Z,8.27
2023-01-13T15:10:34.419Z,7.00
2023-01-13T15:15:37.815Z,2.77
2023-01-13T15:20:40.721Z,2.77
2023-01-13T15:25:43.847Z,2.43
2023-01-13T15:30:45.894Z,3.23
2023-01-13T15:35:49.703Z,3.47
2023-01-13T15:40:52.422Z,3.97
2023-01-13T15:46:12.870Z,3.27
2023-01-13T15:51:14.791Z,5.23
2023-01-13T15:56:23.564Z,4.40
2023-01-13T16:01:25.565Z,3.47
2023-01-13T16:06:32.623Z,10.23
2023-01-13T16:11:34.362Z,4.17
2023-01-13T16:16:37.172Z,5.40
2023-01-13T16:21:39.024Z,4.23
2023-01-13T16:26:40.855Z,4.70
2023-01-13T16:31:42.614Z,6.33
2023-01-13T16:36:46.326Z,4.73
2023-01-13T16:41:48.548Z,6.13
2023-01-13T16:46:50.299Z,6.03
2023-01-13T16:51:52.124Z,6.50
2023-01-13T16:56:53.819Z,4.50
2023-01-13T17:01:55.835Z,6.33
2023-01-13T17:07:00.196Z,6.07
2023-01-13T17:12:02.051Z,6.53
2023-01-13T17:17:03.701Z,6.30
2023-01-13T17:22:05.727Z,8.23
2023-01-13T17:27:07.664Z,5.07
2023-01-13T17:32:16.335Z,5.83
2023-01-13T17:37:18.241Z,7.77
2023-01-13T17:42:20.170Z,6.97
2023-01-13T17:47:21.932Z,5.40
2023-01-13T17:52:23.634Z,6.00
2023-01-13T17:57:25.421Z,5.97
2023-01-13T18:02:27.601Z,8.70
2023-01-13T18:07:29.459Z,9.67
2023-01-13T18:12:31.251Z,7.90
2023-01-13T18:17:32.883Z,7.27
2023-01-13T18:22:52.923Z,6.70
2023-01-13T18:27:54.526Z,5.70
2023-01-13T18:32:56.673Z,8.23
2023-01-13T18:37:58.423Z,6.30
2023-01-13T18:43:00.284Z,8.90
2023-01-13T18:48:03.390Z,6.83
2023-01-13T18:53:05.094Z,8.97
2023-01-13T18:58:08.104Z,8.37
2023-01-13T19:03:09.744Z,6.97
2023-01-13T19:08:11.547Z,10.90
2023-01-13T19:13:16.119Z,6.53
2023-01-13T19:18:17.959Z,4.37
2023-01-13T19:23:19.687Z,4.13
2023-01-13T19:28:22.078Z,4.80
2023-01-13T19:33:23.688Z,6.70
2023-01-13T19:38:26.417Z,4.97
2023-01-13T19:43:47.538Z,9.03
2023-01-13T19:48:49.695Z,5.10
2023-01-13T19:53:51.639Z,4.07
2023-01-13T19:58:53.415Z,7.40
2023-01-13T20:03:55.610Z,6.00
2023-01-13T20:08:57.297Z,7.00
2023-01-13T20:14:00.371Z,5.80
2023-01-13T20:19:08.427Z,7.43
2023-01-13T20:24:15.424Z,8.40
2023-01-13T20:29:17.102Z,5.80
2023-01-13T20:34:19.236Z,10.00
2023-01-13T20:39:23.666Z,3.70
2023-01-13T20:50:17.358Z,7.97
2023-01-13T20:55:55.604Z,4.90
2023-01-13T21:01:18.034Z,9.43
2023-01-13T21:06:20.930Z,7.87
2023-01-13T21:11:43.536Z,6.40
2023-01-13T21:16:45.492Z,7.57
2023-01-13T21:21:47.326Z,4.47
2023-01-13T21:26:59.241Z,4.70
2023-01-13T21:32:01.033Z,4.83
2023-01-13T21:37:02.818Z,5.23
2023-01-13T21:42:32.596Z,11.90
2023-01-13T21:47:49.150Z,6.73
2023-01-13T21:52:55.055Z,8.37
2023-01-13T21:57:58.861Z,3.73
2023-01-13T22:03:03.069Z,3.23
2023-01-13T22:08:15.765Z,7.23
2023-01-13T22:13:36.291Z,9.77
2023-01-13T22:18:38.466Z,5.80
2023-01-13T22:23:47.379Z,9.93
2023-01-13T22:28:49.135Z,7.00
2023-01-13T22:33:55.201Z,6.13
2023-01-13T22:38:57.018Z,9.73
2023-01-13T22:43:58.894Z,6.03
2023-01-13T22:49:00.667Z,6.73
2023-01-13T22:54:02.348Z,6.53
2023-01-13T22:59:05.333Z,7.47
2023-01-13T23:04:07.270Z,8.40
2023-01-13T23:09:10.515Z,7.73
2023-01-13T23:14:12.934Z,5.47
2023-01-13T23:19:15.053Z,7.83
2023-01-13T23:24:17.992Z,10.10
2023-01-13T23:29:20.122Z,5.93
2023-01-13T23:34:24.583Z,5.40
2023-01-13T23:39:27.552Z,9.57
2023-01-13T23:44:30.953Z,8.47
2023-01-13T23:49:36.309Z,6.57
2023-01-13T23:54:38.909Z,7.20
2023-01-13T23:59:41.414Z,7.30
